首页
METAR-TAF:

METAR-TAF

机场 :

哥伦比亚, 南卡罗来纳州, 美国

纬度: 33-56-31N, 经度: 081-07-05W, 海拔: 71米

当前天气观测

该预报发布于1小时和3分钟前的04:56 UTC
风速4节,风向西转西南
温度 23°C
湿度 57%
气压 1016 hPa
能見度: 14.5公里
天空无云

METAR: KCAE 270456Z 24004KT 9SM CLR 23/14 A3001 RMK AO2 SLP157 T02280144 403780211

时间: 01:59 (05:59 UTC)

预报

该预报发布于21分钟前的05:38 UTC
预报有效从27日的 06点(UTC)到 28日的 06点(UTC)
风速4节,风向西
能見度: 10公里
少量云层高于25000英尺
从 27日的 1500点(UTC)
风速10节,风向西转西北,有时为18节阵风
能見度: 10公里
少量云层高于6000英尺
散云层高于25000英尺
从 28日的 0000点(UTC)
风速4节,风向多变
能見度: 10公里
少量云层高于25000英尺

TAF: KCAE 270538Z 2706/2806 27004KT P6SM FEW250 FM271500 29010G18KT P6SM FEW060 SCT250 FM280000 VRB04KT P6SM FEW250

超过4000个机场的气象观测和天气预报(METAR&TAF报告)。

可查询的气象台以黄色和红色小点在地图上表示。

将鼠标移到小点上方,可查看气象台名称。

然后点击查看天气观测和预报。

如需切换地图:点击带黑十字的绿色按钮放大地图;点击带横线的绿色按钮缩小地图;或者点击绿色箭头查看邻近地区的地图。


METAR-TAF: